sensor_id;sensor_type;location;lat;lon;timestamp;temperature;humidity
65707;SHT31;52423;43.512;5.220;2023-12-14T00:01:26;8.65;82.96
65707;SHT31;52423;43.512;5.220;2023-12-14T00:03:52;8.76;82.15
65707;SHT31;52423;43.512;5.220;2023-12-14T00:06:17;8.76;82.24
65707;SHT31;52423;43.512;5.220;2023-12-14T00:08:43;8.80;82.10
65707;SHT31;52423;43.512;5.220;2023-12-14T00:11:10;8.82;82.00
65707;SHT31;52423;43.512;5.220;2023-12-14T00:13:36;8.82;82.18
65707;SHT31;52423;43.512;5.220;2023-12-14T00:16:02;8.86;81.25
65707;SHT31;52423;43.512;5.220;2023-12-14T00:18:28;8.93;81.88
65707;SHT31;52423;43.512;5.220;2023-12-14T00:20:53;8.90;82.01
65707;SHT31;52423;43.512;5.220;2023-12-14T00:23:19;8.87;81.76
65707;SHT31;52423;43.512;5.220;2023-12-14T00:25:45;8.80;81.51
65707;SHT31;52423;43.512;5.220;2023-12-14T00:28:11;8.79;81.62
65707;SHT31;52423;43.512;5.220;2023-12-14T00:30:36;8.77;81.84
65707;SHT31;52423;43.512;5.220;2023-12-14T00:33:02;8.77;81.47
65707;SHT31;52423;43.512;5.220;2023-12-14T00:35:27;8.70;82.09
65707;SHT31;52423;43.512;5.220;2023-12-14T00:37:52;8.70;82.26
65707;SHT31;52423;43.512;5.220;2023-12-14T00:40:18;8.66;82.29
65707;SHT31;52423;43.512;5.220;2023-12-14T00:42:43;8.61;81.80
65707;SHT31;52423;43.512;5.220;2023-12-14T00:45:09;8.61;81.93
65707;SHT31;52423;43.512;5.220;2023-12-14T00:47:35;8.61;82.02
65707;SHT31;52423;43.512;5.220;2023-12-14T00:50:00;8.55;82.43
65707;SHT31;52423;43.512;5.220;2023-12-14T00:52:26;8.51;81.97
65707;SHT31;52423;43.512;5.220;2023-12-14T00:54:51;8.53;82.79
65707;SHT31;52423;43.512;5.220;2023-12-14T00:57:17;8.51;82.97
65707;SHT31;52423;43.512;5.220;2023-12-14T00:59:42;8.48;83.22
65707;SHT31;52423;43.512;5.220;2023-12-14T01:02:08;8.49;82.27
65707;SHT31;52423;43.512;5.220;2023-12-14T01:04:33;8.41;82.18
65707;SHT31;52423;43.512;5.220;2023-12-14T01:06:58;8.37;82.84
65707;SHT31;52423;43.512;5.220;2023-12-14T01:09:24;8.35;83.12
65707;SHT31;52423;43.512;5.220;2023-12-14T01:11:49;8.35;82.51
65707;SHT31;52423;43.512;5.220;2023-12-14T01:14:15;8.31;82.51
65707;SHT31;52423;43.512;5.220;2023-12-14T01:16:40;8.30;82.31
65707;SHT31;52423;43.512;5.220;2023-12-14T01:19:06;8.30;82.46
65707;SHT31;52423;43.512;5.220;2023-12-14T01:21:32;8.27;83.02
65707;SHT31;52423;43.512;5.220;2023-12-14T01:23:57;8.25;82.53
65707;SHT31;52423;43.512;5.220;2023-12-14T01:26:23;8.22;83.41
65707;SHT31;52423;43.512;5.220;2023-12-14T01:28:48;8.20;83.31
65707;SHT31;52423;43.512;5.220;2023-12-14T01:31:14;8.22;82.60
65707;SHT31;52423;43.512;5.220;2023-12-14T01:33:39;8.18;82.77
65707;SHT31;52423;43.512;5.220;2023-12-14T01:36:05;8.11;82.93
65707;SHT31;52423;43.512;5.220;2023-12-14T01:38:30;8.05;82.70
65707;SHT31;52423;43.512;5.220;2023-12-14T01:40:55;8.00;83.22
65707;SHT31;52423;43.512;5.220;2023-12-14T01:43:23;8.00;83.20
65707;SHT31;52423;43.512;5.220;2023-12-14T01:45:48;7.97;83.29
65707;SHT31;52423;43.512;5.220;2023-12-14T01:48:14;7.91;83.20
65707;SHT31;52423;43.512;5.220;2023-12-14T01:50:39;8.01;82.75
65707;SHT31;52423;43.512;5.220;2023-12-14T01:53:04;8.04;82.13
65707;SHT31;52423;43.512;5.220;2023-12-14T01:55:30;7.84;83.78
65707;SHT31;52423;43.512;5.220;2023-12-14T01:57:55;7.90;82.50
65707;SHT31;52423;43.512;5.220;2023-12-14T02:02:53;7.79;82.87
65707;SHT31;52423;43.512;5.220;2023-12-14T02:05:19;7.79;82.75
65707;SHT31;52423;43.512;5.220;2023-12-14T02:07:44;7.74;83.66
65707;SHT31;52423;43.512;5.220;2023-12-14T02:10:09;7.74;83.72
65707;SHT31;52423;43.512;5.220;2023-12-14T02:12:35;7.77;83.49
65707;SHT31;52423;43.512;5.220;2023-12-14T02:15:00;7.80;83.32
65707;SHT31;52423;43.512;5.220;2023-12-14T02:17:25;7.76;83.54
65707;SHT31;52423;43.512;5.220;2023-12-14T02:19:51;7.81;83.37
65707;SHT31;52423;43.512;5.220;2023-12-14T02:22:17;7.86;83.26
65707;SHT31;52423;43.512;5.220;2023-12-14T02:24:42;7.84;83.49
65707;SHT31;52423;43.512;5.220;2023-12-14T02:27:08;7.90;83.17
65707;SHT31;52423;43.512;5.220;2023-12-14T02:29:33;7.90;83.24
65707;SHT31;52423;43.512;5.220;2023-12-14T02:31:59;7.87;83.46
65707;SHT31;52423;43.512;5.220;2023-12-14T02:34:24;7.84;83.52
65707;SHT31;52423;43.512;5.220;2023-12-14T02:36:53;7.83;83.67
65707;SHT31;52423;43.512;5.220;2023-12-14T02:39:18;7.87;83.52
65707;SHT31;52423;43.512;5.220;2023-12-14T02:41:44;7.86;83.72
65707;SHT31;52423;43.512;5.220;2023-12-14T02:44:09;7.87;83.53
65707;SHT31;52423;43.512;5.220;2023-12-14T02:46:34;7.90;83.35
65707;SHT31;52423;43.512;5.220;2023-12-14T02:49:00;7.87;83.10
65707;SHT31;52423;43.512;5.220;2023-12-14T02:51:25;7.86;83.20
65707;SHT31;52423;43.512;5.220;2023-12-14T02:53:50;7.91;83.10
65707;SHT31;52423;43.512;5.220;2023-12-14T02:56:16;7.93;83.35
65707;SHT31;52423;43.512;5.220;2023-12-14T02:58:41;7.98;83.59
65707;SHT31;52423;43.512;5.220;2023-12-14T03:01:07;8.01;83.39
65707;SHT31;52423;43.512;5.220;2023-12-14T03:03:32;8.04;83.16
65707;SHT31;52423;43.512;5.220;2023-12-14T03:05:57;8.05;83.45
65707;SHT31;52423;43.512;5.220;2023-12-14T03:08:23;8.01;82.25
65707;SHT31;52423;43.512;5.220;2023-12-14T03:10:48;8.04;83.14
65707;SHT31;52423;43.512;5.220;2023-12-14T03:13:13;8.05;83.37
65707;SHT31;52423;43.512;5.220;2023-12-14T03:15:42;8.02;83.33
65707;SHT31;52423;43.512;5.220;2023-12-14T03:18:07;8.02;83.15
65707;SHT31;52423;43.512;5.220;2023-12-14T03:20:33;8.02;83.06
65707;SHT31;52423;43.512;5.220;2023-12-14T03:22:58;8.04;83.01
65707;SHT31;52423;43.512;5.220;2023-12-14T03:25:23;8.01;83.28
65707;SHT31;52423;43.512;5.220;2023-12-14T03:27:49;8.05;83.16
65707;SHT31;52423;43.512;5.220;2023-12-14T03:30:14;8.00;82.85
65707;SHT31;52423;43.512;5.220;2023-12-14T03:32:40;8.02;82.96
65707;SHT31;52423;43.512;5.220;2023-12-14T03:35:05;8.07;82.93
65707;SHT31;52423;43.512;5.220;2023-12-14T03:37:31;8.10;82.94
65707;SHT31;52423;43.512;5.220;2023-12-14T03:39:56;8.04;83.11
65707;SHT31;52423;43.512;5.220;2023-12-14T03:42:22;8.04;82.90
65707;SHT31;52423;43.512;5.220;2023-12-14T03:44:47;8.11;82.51
65707;SHT31;52423;43.512;5.220;2023-12-14T03:47:13;8.17;82.53
65707;SHT31;52423;43.512;5.220;2023-12-14T03:49:38;8.24;82.35
65707;SHT31;52423;43.512;5.220;2023-12-14T03:52:04;8.28;81.74
65707;SHT31;52423;43.512;5.220;2023-12-14T03:54:30;8.28;81.67
65707;SHT31;52423;43.512;5.220;2023-12-14T03:56:55;8.42;80.83
65707;SHT31;52423;43.512;5.220;2023-12-14T03:59:20;8.41;81.47
65707;SHT31;52423;43.512;5.220;2023-12-14T04:09:03;8.46;80.34
65707;SHT31;52423;43.512;5.220;2023-12-14T04:11:28;8.58;80.05
65707;SHT31;52423;43.512;5.220;2023-12-14T04:13:55;8.55;80.20
65707;SHT31;52423;43.512;5.220;2023-12-14T04:16:20;8.58;79.76
65707;SHT31;52423;43.512;5.220;2023-12-14T04:18:46;8.62;80.31
65707;SHT31;52423;43.512;5.220;2023-12-14T04:21:11;8.62;79.77
65707;SHT31;52423;43.512;5.220;2023-12-14T04:23:37;8.65;79.88
65707;SHT31;52423;43.512;5.220;2023-12-14T04:26:02;8.58;79.79
65707;SHT31;52423;43.512;5.220;2023-12-14T04:28:28;8.61;79.85
65707;SHT31;52423;43.512;5.220;2023-12-14T04:30:53;8.59;80.66
65707;SHT31;52423;43.512;5.220;2023-12-14T04:33:18;8.55;80.87
65707;SHT31;52423;43.512;5.220;2023-12-14T04:35:44;8.56;79.97
65707;SHT31;52423;43.512;5.220;2023-12-14T04:38:09;8.55;80.37
65707;SHT31;52423;43.512;5.220;2023-12-14T04:40:35;8.56;79.75
65707;SHT31;52423;43.512;5.220;2023-12-14T04:43:00;8.59;80.10
65707;SHT31;52423;43.512;5.220;2023-12-14T04:45:25;8.59;80.16
65707;SHT31;52423;43.512;5.220;2023-12-14T04:47:51;8.55;80.18
65707;SHT31;52423;43.512;5.220;2023-12-14T04:50:16;8.61;80.82
65707;SHT31;52423;43.512;5.220;2023-12-14T04:52:42;8.61;79.79
65707;SHT31;52423;43.512;5.220;2023-12-14T04:55:10;8.58;79.74
65707;SHT31;52423;43.512;5.220;2023-12-14T04:57:35;8.55;79.87
65707;SHT31;52423;43.512;5.220;2023-12-14T05:00:01;8.53;79.80
65707;SHT31;52423;43.512;5.220;2023-12-14T05:02:27;8.55;80.14
65707;SHT31;52423;43.512;5.220;2023-12-14T05:04:53;8.51;79.80
65707;SHT31;52423;43.512;5.220;2023-12-14T05:07:18;8.51;79.69
65707;SHT31;52423;43.512;5.220;2023-12-14T05:09:44;8.49;79.98
65707;SHT31;52423;43.512;5.220;2023-12-14T05:12:09;8.56;79.86
65707;SHT31;52423;43.512;5.220;2023-12-14T05:14:34;8.58;79.50
65707;SHT31;52423;43.512;5.220;2023-12-14T05:17:00;8.58;79.18
65707;SHT31;52423;43.512;5.220;2023-12-14T05:19:25;8.61;78.42
65707;SHT31;52423;43.512;5.220;2023-12-14T05:21:51;8.62;78.61
65707;SHT31;52423;43.512;5.220;2023-12-14T05:24:16;8.70;78.48
65707;SHT31;52423;43.512;5.220;2023-12-14T05:26:41;8.76;78.53
65707;SHT31;52423;43.512;5.220;2023-12-14T05:29:07;8.73;78.35
65707;SHT31;52423;43.512;5.220;2023-12-14T05:31:32;8.79;78.01
65707;SHT31;52423;43.512;5.220;2023-12-14T05:33:58;8.83;78.14
65707;SHT31;52423;43.512;5.220;2023-12-14T05:36:23;8.83;77.25
65707;SHT31;52423;43.512;5.220;2023-12-14T05:38:49;8.84;78.31
65707;SHT31;52423;43.512;5.220;2023-12-14T05:41:14;8.84;78.06
65707;SHT31;52423;43.512;5.220;2023-12-14T05:43:40;8.84;77.88
65707;SHT31;52423;43.512;5.220;2023-12-14T05:46:06;8.87;77.46
65707;SHT31;52423;43.512;5.220;2023-12-14T05:48:31;8.82;78.40
65707;SHT31;52423;43.512;5.220;2023-12-14T05:50:57;8.87;77.63
65707;SHT31;52423;43.512;5.220;2023-12-14T05:53:22;8.87;77.92
65707;SHT31;52423;43.512;5.220;2023-12-14T05:55:48;8.87;77.93
65707;SHT31;52423;43.512;5.220;2023-12-14T05:58:13;8.83;78.15
65707;SHT31;52423;43.512;5.220;2023-12-14T06:00:39;8.86;77.97
65707;SHT31;52423;43.512;5.220;2023-12-14T06:03:05;8.84;78.01
65707;SHT31;52423;43.512;5.220;2023-12-14T06:05:30;8.86;77.76
65707;SHT31;52423;43.512;5.220;2023-12-14T06:07:56;8.84;78.04
65707;SHT31;52423;43.512;5.220;2023-12-14T06:10:21;8.86;77.75
65707;SHT31;52423;43.512;5.220;2023-12-14T06:12:47;8.83;77.82
65707;SHT31;52423;43.512;5.220;2023-12-14T06:15:13;8.83;78.63
65707;SHT31;52423;43.512;5.220;2023-12-14T06:17:38;8.76;77.65
65707;SHT31;52423;43.512;5.220;2023-12-14T06:20:05;8.83;77.88
65707;SHT31;52423;43.512;5.220;2023-12-14T06:22:31;8.83;78.12
65707;SHT31;52423;43.512;5.220;2023-12-14T06:24:57;8.87;78.07
65707;SHT31;52423;43.512;5.220;2023-12-14T06:27:23;8.79;77.57
65707;SHT31;52423;43.512;5.220;2023-12-14T06:29:52;8.89;76.74
65707;SHT31;52423;43.512;5.220;2023-12-14T06:32:17;8.90;77.48
65707;SHT31;52423;43.512;5.220;2023-12-14T06:34:42;8.90;77.18
65707;SHT31;52423;43.512;5.220;2023-12-14T06:37:08;8.94;77.30
65707;SHT31;52423;43.512;5.220;2023-12-14T06:39:33;8.87;77.76
65707;SHT31;52423;43.512;5.220;2023-12-14T06:41:58;8.93;76.99
65707;SHT31;52423;43.512;5.220;2023-12-14T06:44:24;8.93;77.26
65707;SHT31;52423;43.512;5.220;2023-12-14T06:46:51;8.97;77.10
65707;SHT31;52423;43.512;5.220;2023-12-14T06:49:17;8.93;77.69
65707;SHT31;52423;43.512;5.220;2023-12-14T06:51:42;8.93;77.14
65707;SHT31;52423;43.512;5.220;2023-12-14T06:54:07;8.94;77.90
65707;SHT31;52423;43.512;5.220;2023-12-14T06:56:36;8.92;77.14
65707;SHT31;52423;43.512;5.220;2023-12-14T06:59:01;8.90;77.38
65707;SHT31;52423;43.512;5.220;2023-12-14T07:01:27;8.89;77.52
65707;SHT31;52423;43.512;5.220;2023-12-14T07:03:52;8.90;77.61
65707;SHT31;52423;43.512;5.220;2023-12-14T07:06:18;8.93;76.77
65707;SHT31;52423;43.512;5.220;2023-12-14T07:08:44;8.92;77.23
65707;SHT31;52423;43.512;5.220;2023-12-14T07:11:11;8.84;78.07
65707;SHT31;52423;43.512;5.220;2023-12-14T07:13:37;8.80;78.39
65707;SHT31;52423;43.512;5.220;2023-12-14T07:16:07;8.80;77.99
65707;SHT31;52423;43.512;5.220;2023-12-14T07:18:36;8.79;78.01
65707;SHT31;52423;43.512;5.220;2023-12-14T07:21:02;8.83;77.12
65707;SHT31;52423;43.512;5.220;2023-12-14T07:23:28;8.86;77.25
65707;SHT31;52423;43.512;5.220;2023-12-14T07:25:53;8.87;76.98
65707;SHT31;52423;43.512;5.220;2023-12-14T07:28:19;9.03;76.98
65707;SHT31;52423;43.512;5.220;2023-12-14T07:30:45;9.10;77.01
65707;SHT31;52423;43.512;5.220;2023-12-14T07:33:12;9.23;76.83
65707;SHT31;52423;43.512;5.220;2023-12-14T07:35:37;9.38;75.84
65707;SHT31;52423;43.512;5.220;2023-12-14T07:38:02;9.45;75.69
65707;SHT31;52423;43.512;5.220;2023-12-14T07:40:28;9.57;74.60
65707;SHT31;52423;43.512;5.220;2023-12-14T07:42:54;9.64;74.77
65707;SHT31;52423;43.512;5.220;2023-12-14T07:45:19;9.72;74.33
65707;SHT31;52423;43.512;5.220;2023-12-14T07:47:44;9.78;73.25
65707;SHT31;52423;43.512;5.220;2023-12-14T07:50:11;9.83;72.92
65707;SHT31;52423;43.512;5.220;2023-12-14T07:52:37;9.88;73.12
65707;SHT31;52423;43.512;5.220;2023-12-14T07:55:03;9.89;71.84
65707;SHT31;52423;43.512;5.220;2023-12-14T07:57:28;9.96;72.16
65707;SHT31;52423;43.512;5.220;2023-12-14T07:59:53;10.02;72.50
65707;SHT31;52423;43.512;5.220;2023-12-14T08:02:19;10.05;72.53
65707;SHT31;52423;43.512;5.220;2023-12-14T08:04:44;10.02;72.35
65707;SHT31;52423;43.512;5.220;2023-12-14T08:07:10;10.08;71.47
65707;SHT31;52423;43.512;5.220;2023-12-14T08:09:35;10.14;71.83
65707;SHT31;52423;43.512;5.220;2023-12-14T08:12:00;10.13;71.94
65707;SHT31;52423;43.512;5.220;2023-12-14T08:14:26;10.14;72.35
65707;SHT31;52423;43.512;5.220;2023-12-14T08:16:51;10.06;72.09
65707;SHT31;52423;43.512;5.220;2023-12-14T08:19:17;10.01;71.59
65707;SHT31;52423;43.512;5.220;2023-12-14T08:21:42;9.93;73.13
65707;SHT31;52423;43.512;5.220;2023-12-14T08:24:08;9.86;72.57
65707;SHT31;52423;43.512;5.220;2023-12-14T08:26:33;9.81;72.68
65707;SHT31;52423;43.512;5.220;2023-12-14T08:28:58;9.75;72.88
65707;SHT31;52423;43.512;5.220;2023-12-14T08:31:24;9.70;73.55
65707;SHT31;52423;43.512;5.220;2023-12-14T08:33:50;9.72;73.14
65707;SHT31;52423;43.512;5.220;2023-12-14T08:36:17;9.75;72.78
65707;SHT31;52423;43.512;5.220;2023-12-14T08:38:43;9.75;72.36
65707;SHT31;52423;43.512;5.220;2023-12-14T08:41:12;9.79;72.28
65707;SHT31;52423;43.512;5.220;2023-12-14T08:43:38;9.82;72.21
65707;SHT31;52423;43.512;5.220;2023-12-14T08:46:03;9.88;71.71
65707;SHT31;52423;43.512;5.220;2023-12-14T08:48:29;9.91;71.42
65707;SHT31;52423;43.512;5.220;2023-12-14T08:50:54;9.91;71.53
65707;SHT31;52423;43.512;5.220;2023-12-14T08:53:20;9.95;72.87
65707;SHT31;52423;43.512;5.220;2023-12-14T08:55:45;10.01;71.71
65707;SHT31;52423;43.512;5.220;2023-12-14T08:58:11;10.02;71.00
65707;SHT31;52423;43.512;5.220;2023-12-14T09:00:37;10.09;71.02
65707;SHT31;52423;43.512;5.220;2023-12-14T09:03:03;10.10;70.59
65707;SHT31;52423;43.512;5.220;2023-12-14T09:05:29;10.13;70.64
65707;SHT31;52423;43.512;5.220;2023-12-14T09:07:54;10.12;71.13
65707;SHT31;52423;43.512;5.220;2023-12-14T09:10:22;10.19;70.82
65707;SHT31;52423;43.512;5.220;2023-12-14T09:12:47;10.17;71.27
65707;SHT31;52423;43.512;5.220;2023-12-14T09:15:13;10.23;70.19
65707;SHT31;52423;43.512;5.220;2023-12-14T09:17:41;10.36;68.95
65707;SHT31;52423;43.512;5.220;2023-12-14T09:20:08;10.36;70.25
65707;SHT31;52423;43.512;5.220;2023-12-14T09:22:33;10.49;68.76
65707;SHT31;52423;43.512;5.220;2023-12-14T09:24:59;10.65;67.64
65707;SHT31;52423;43.512;5.220;2023-12-14T09:27:24;10.71;67.76
65707;SHT31;52423;43.512;5.220;2023-12-14T09:29:49;10.82;67.71
65707;SHT31;52423;43.512;5.220;2023-12-14T09:32:15;10.84;67.58
65707;SHT31;52423;43.512;5.220;2023-12-14T09:34:43;10.90;66.60
65707;SHT31;52423;43.512;5.220;2023-12-14T09:37:08;10.92;66.55
65707;SHT31;52423;43.512;5.220;2023-12-14T09:39:33;11.02;64.90
65707;SHT31;52423;43.512;5.220;2023-12-14T09:42:03;11.02;64.25
65707;SHT31;52423;43.512;5.220;2023-12-14T09:44:33;11.01;65.01
65707;SHT31;52423;43.512;5.220;2023-12-14T09:47:02;10.92;65.31
65707;SHT31;52423;43.512;5.220;2023-12-14T09:49:28;10.92;66.30
65707;SHT31;52423;43.512;5.220;2023-12-14T09:51:57;10.97;65.29
65707;SHT31;52423;43.512;5.220;2023-12-14T09:54:24;10.92;64.77
65707;SHT31;52423;43.512;5.220;2023-12-14T09:56:50;10.90;65.82
65707;SHT31;52423;43.512;5.220;2023-12-14T09:59:15;10.85;66.80
65707;SHT31;52423;43.512;5.220;2023-12-14T10:01:41;10.92;64.71
65707;SHT31;52423;43.512;5.220;2023-12-14T10:04:14;10.97;65.82
65707;SHT31;52423;43.512;5.220;2023-12-14T10:06:41;10.94;66.71
65707;SHT31;52423;43.512;5.220;2023-12-14T10:09:08;11.01;64.79
65707;SHT31;52423;43.512;5.220;2023-12-14T10:11:38;11.04;64.46
65707;SHT31;52423;43.512;5.220;2023-12-14T10:14:20;11.05;63.85
65707;SHT31;52423;43.512;5.220;2023-12-14T10:16:47;11.04;64.33
65707;SHT31;52423;43.512;5.220;2023-12-14T10:19:12;11.12;64.23
65707;SHT31;52423;43.512;5.220;2023-12-14T10:21:38;11.11;65.10
65707;SHT31;52423;43.512;5.220;2023-12-14T10:24:05;11.16;63.80
65707;SHT31;52423;43.512;5.220;2023-12-14T10:26:31;11.16;64.16
65707;SHT31;52423;43.512;5.220;2023-12-14T10:28:56;11.21;65.03
65707;SHT31;52423;43.512;5.220;2023-12-14T10:31:23;11.26;63.11
65707;SHT31;52423;43.512;5.220;2023-12-14T10:33:49;11.26;64.36
65707;SHT31;52423;43.512;5.220;2023-12-14T10:36:18;11.31;63.94
65707;SHT31;52423;43.512;5.220;2023-12-14T10:38:48;11.36;63.55
65707;SHT31;52423;43.512;5.220;2023-12-14T10:41:13;11.43;63.18
65707;SHT31;52423;43.512;5.220;2023-12-14T10:43:39;11.51;63.24
65707;SHT31;52423;43.512;5.220;2023-12-14T10:46:07;11.56;62.67
65707;SHT31;52423;43.512;5.220;2023-12-14T10:48:35;11.62;62.71
65707;SHT31;52423;43.512;5.220;2023-12-14T10:51:03;11.63;61.84
65707;SHT31;52423;43.512;5.220;2023-12-14T10:53:31;11.72;62.62
65707;SHT31;52423;43.512;5.220;2023-12-14T10:55:59;11.74;61.33
65707;SHT31;52423;43.512;5.220;2023-12-14T10:58:25;11.77;61.64
65707;SHT31;52423;43.512;5.220;2023-12-14T11:01:00;11.83;61.65
65707;SHT31;52423;43.512;5.220;2023-12-14T11:03:26;11.79;62.15
65707;SHT31;52423;43.512;5.220;2023-12-14T11:05:52;11.77;62.18
65707;SHT31;52423;43.512;5.220;2023-12-14T11:08:18;11.77;60.91
65707;SHT31;52423;43.512;5.220;2023-12-14T11:11:03;11.74;61.11
65707;SHT31;52423;43.512;5.220;2023-12-14T11:13:35;11.74;62.93
65707;SHT31;52423;43.512;5.220;2023-12-14T11:16:01;11.74;61.91
65707;SHT31;52423;43.512;5.220;2023-12-14T11:18:27;11.80;61.52
65707;SHT31;52423;43.512;5.220;2023-12-14T11:20:58;11.82;61.91
65707;SHT31;52423;43.512;5.220;2023-12-14T11:25:52;11.89;63.45
65707;SHT31;52423;43.512;5.220;2023-12-14T11:28:19;11.95;62.51
65707;SHT31;52423;43.512;5.220;2023-12-14T11:30:45;12.08;60.89
65707;SHT31;52423;43.512;5.220;2023-12-14T11:33:11;12.11;60.66
65707;SHT31;52423;43.512;5.220;2023-12-14T11:35:37;12.11;61.26
65707;SHT31;52423;43.512;5.220;2023-12-14T11:38:02;12.16;61.20
65707;SHT31;52423;43.512;5.220;2023-12-14T11:40:35;12.21;60.90
65707;SHT31;52423;43.512;5.220;2023-12-14T11:43:02;12.23;61.23
65707;SHT31;52423;43.512;5.220;2023-12-14T11:45:33;12.30;61.53
65707;SHT31;52423;43.512;5.220;2023-12-14T11:47:59;12.31;62.38
65707;SHT31;52423;43.512;5.220;2023-12-14T11:50:26;12.34;60.60
65707;SHT31;52423;43.512;5.220;2023-12-14T11:52:52;12.32;60.35
65707;SHT31;52423;43.512;5.220;2023-12-14T11:55:19;12.35;61.05
65707;SHT31;52423;43.512;5.220;2023-12-14T11:57:46;12.34;62.19
65707;SHT31;52423;43.512;5.220;2023-12-14T12:00:12;12.34;61.80
65707;SHT31;52423;43.512;5.220;2023-12-14T12:02:38;12.34;61.05
65707;SHT31;52423;43.512;5.220;2023-12-14T12:05:06;12.37;60.07
65707;SHT31;52423;43.512;5.220;2023-12-14T12:07:31;12.37;59.82
65707;SHT31;52423;43.512;5.220;2023-12-14T12:09:58;12.34;60.48
65707;SHT31;52423;43.512;5.220;2023-12-14T12:12:24;12.41;60.24
65707;SHT31;52423;43.512;5.220;2023-12-14T12:14:49;12.45;60.18
65707;SHT31;52423;43.512;5.220;2023-12-14T12:17:18;12.49;59.87
65707;SHT31;52423;43.512;5.220;2023-12-14T12:19:45;12.46;60.43
65707;SHT31;52423;43.512;5.220;2023-12-14T12:22:10;12.51;60.62
65707;SHT31;52423;43.512;5.220;2023-12-14T12:24:36;12.51;60.03
65707;SHT31;52423;43.512;5.220;2023-12-14T12:27:01;12.48;60.81
65707;SHT31;52423;43.512;5.220;2023-12-14T12:29:27;12.54;60.66
65707;SHT31;52423;43.512;5.220;2023-12-14T12:31:52;12.52;60.82
65707;SHT31;52423;43.512;5.220;2023-12-14T12:34:18;12.56;60.66
65707;SHT31;52423;43.512;5.220;2023-12-14T12:36:43;12.59;60.90
65707;SHT31;52423;43.512;5.220;2023-12-14T12:39:09;12.59;61.25
65707;SHT31;52423;43.512;5.220;2023-12-14T12:41:34;12.56;60.52
65707;SHT31;52423;43.512;5.220;2023-12-14T12:44:03;12.59;60.22
65707;SHT31;52423;43.512;5.220;2023-12-14T12:46:37;12.66;60.35
65707;SHT31;52423;43.512;5.220;2023-12-14T12:49:04;12.62;60.74
65707;SHT31;52423;43.512;5.220;2023-12-14T12:51:30;12.62;60.31
65707;SHT31;52423;43.512;5.220;2023-12-14T12:53:57;12.61;60.71
65707;SHT31;52423;43.512;5.220;2023-12-14T12:56:23;12.63;59.59
65707;SHT31;52423;43.512;5.220;2023-12-14T12:58:49;12.62;59.43
65707;SHT31;52423;43.512;5.220;2023-12-14T13:01:17;12.61;60.09
65707;SHT31;52423;43.512;5.220;2023-12-14T13:03:42;12.63;60.19
65707;SHT31;52423;43.512;5.220;2023-12-14T13:06:08;12.65;60.87
65707;SHT31;52423;43.512;5.220;2023-12-14T13:08:33;12.72;59.91
65707;SHT31;52423;43.512;5.220;2023-12-14T13:10:58;12.71;60.65
65707;SHT31;52423;43.512;5.220;2023-12-14T13:13:25;12.71;60.65
65707;SHT31;52423;43.512;5.220;2023-12-14T13:15:50;12.71;60.47
65707;SHT31;52423;43.512;5.220;2023-12-14T13:18:15;12.72;59.95
65707;SHT31;52423;43.512;5.220;2023-12-14T13:20:42;12.69;60.28
65707;SHT31;52423;43.512;5.220;2023-12-14T13:23:07;12.59;61.53
65707;SHT31;52423;43.512;5.220;2023-12-14T13:25:33;12.63;61.35
65707;SHT31;52423;43.512;5.220;2023-12-14T13:27:59;12.59;60.03
65707;SHT31;52423;43.512;5.220;2023-12-14T13:30:24;12.56;60.28
65707;SHT31;52423;43.512;5.220;2023-12-14T13:32:50;12.52;61.50
65707;SHT31;52423;43.512;5.220;2023-12-14T13:35:16;12.51;60.93
65707;SHT31;52423;43.512;5.220;2023-12-14T13:37:41;12.46;62.29
65707;SHT31;52423;43.512;5.220;2023-12-14T13:40:07;12.52;60.50
65707;SHT31;52423;43.512;5.220;2023-12-14T13:42:37;12.48;62.44
65707;SHT31;52423;43.512;5.220;2023-12-14T13:45:02;12.48;62.69
65707;SHT31;52423;43.512;5.220;2023-12-14T13:47:27;12.54;61.45
65707;SHT31;52423;43.512;5.220;2023-12-14T13:49:53;12.51;61.20
65707;SHT31;52423;43.512;5.220;2023-12-14T13:52:18;12.46;63.84
65707;SHT31;52423;43.512;5.220;2023-12-14T13:54:44;12.45;62.01
65707;SHT31;52423;43.512;5.220;2023-12-14T13:57:09;12.40;61.96
65707;SHT31;52423;43.512;5.220;2023-12-14T13:59:34;12.35;62.81
65707;SHT31;52423;43.512;5.220;2023-12-14T14:02:00;12.34;61.51
65707;SHT31;52423;43.512;5.220;2023-12-14T14:04:25;12.35;62.99
65707;SHT31;52423;43.512;5.220;2023-12-14T14:06:50;12.31;62.31
65707;SHT31;52423;43.512;5.220;2023-12-14T14:09:16;12.31;63.03
65707;SHT31;52423;43.512;5.220;2023-12-14T14:11:41;12.31;62.93
65707;SHT31;52423;43.512;5.220;2023-12-14T14:14:11;12.30;63.46
65707;SHT31;52423;43.512;5.220;2023-12-14T14:16:36;12.28;62.25
65707;SHT31;52423;43.512;5.220;2023-12-14T14:19:02;12.30;62.66
65707;SHT31;52423;43.512;5.220;2023-12-14T14:21:27;12.25;62.87
65707;SHT31;52423;43.512;5.220;2023-12-14T14:23:53;12.21;62.76
65707;SHT31;52423;43.512;5.220;2023-12-14T14:26:18;12.18;62.67
65707;SHT31;52423;43.512;5.220;2023-12-14T14:28:44;12.14;63.26
65707;SHT31;52423;43.512;5.220;2023-12-14T14:31:09;12.07;62.74
65707;SHT31;52423;43.512;5.220;2023-12-14T14:33:35;12.03;63.36
65707;SHT31;52423;43.512;5.220;2023-12-14T14:36:00;12.03;63.53
65707;SHT31;52423;43.512;5.220;2023-12-14T14:38:30;11.94;63.61
65707;SHT31;52423;43.512;5.220;2023-12-14T14:40:55;11.97;64.14
65707;SHT31;52423;43.512;5.220;2023-12-14T14:43:21;11.98;63.80
65707;SHT31;52423;43.512;5.220;2023-12-14T14:45:47;11.95;63.96
65707;SHT31;52423;43.512;5.220;2023-12-14T14:48:13;11.90;63.30
65707;SHT31;52423;43.512;5.220;2023-12-14T14:50:38;11.89;63.71
65707;SHT31;52423;43.512;5.220;2023-12-14T14:53:04;11.83;64.02
65707;SHT31;52423;43.512;5.220;2023-12-14T14:55:30;11.77;64.31
65707;SHT31;52423;43.512;5.220;2023-12-14T14:57:55;11.77;63.99
65707;SHT31;52423;43.512;5.220;2023-12-14T15:00:21;11.73;64.88
65707;SHT31;52423;43.512;5.220;2023-12-14T15:02:47;11.73;64.84
65707;SHT31;52423;43.512;5.220;2023-12-14T15:05:12;11.72;65.02
65707;SHT31;52423;43.512;5.220;2023-12-14T15:07:38;11.69;64.32
65707;SHT31;52423;43.512;5.220;2023-12-14T15:10:04;11.65;64.60
65707;SHT31;52423;43.512;5.220;2023-12-14T15:12:29;11.60;65.08
65707;SHT31;52423;43.512;5.220;2023-12-14T15:14:55;11.56;65.01
65707;SHT31;52423;43.512;5.220;2023-12-14T15:17:21;11.51;65.02
65707;SHT31;52423;43.512;5.220;2023-12-14T15:19:48;11.47;64.73
65707;SHT31;52423;43.512;5.220;2023-12-14T15:22:15;11.43;64.87
65707;SHT31;52423;43.512;5.220;2023-12-14T15:24:41;11.42;65.22
65707;SHT31;52423;43.512;5.220;2023-12-14T15:27:06;11.38;65.78
65707;SHT31;52423;43.512;5.220;2023-12-14T15:29:32;11.36;65.89
65707;SHT31;52423;43.512;5.220;2023-12-14T15:31:57;11.33;65.85
65707;SHT31;52423;43.512;5.220;2023-12-14T15:34:22;11.26;66.13
65707;SHT31;52423;43.512;5.220;2023-12-14T15:36:48;11.15;67.25
65707;SHT31;52423;43.512;5.220;2023-12-14T15:39:13;11.15;66.45
65707;SHT31;52423;43.512;5.220;2023-12-14T15:41:39;11.12;66.11
65707;SHT31;52423;43.512;5.220;2023-12-14T15:44:04;11.02;66.73